Time;durP1;ratioP1;P1;durP2;ratioP2;P2;SDS_P1;SDS_P2;PMS_P1;PMS_P2;Temp;Humidity;BMP_temperature;BMP_pressure;BME280_temperature;BME280_humidity;BME280_pressure;Samples;Min_cycle;Max_cycle;Signal;HPM_P1;HPM_P2
2023/03/20 00:00:48;;;;;;;38.20;20.60;;;11.10;99.90;;;;;;5036586;28;20242;-77
2023/03/20 00:03:15;;;;;;;37.85;19.58;;;11.00;99.90;;;;;;5033095;28;20234;-78
2023/03/20 00:05:43;;;;;;;39.45;21.23;;;11.10;99.90;;;;;;5034629;28;20287;-74
2023/03/20 00:08:10;;;;;;;43.22;20.90;;;11.10;99.90;;;;;;5039866;28;20215;-73
2023/03/20 00:10:40;;;;;;;38.15;20.52;;;11.10;99.90;;;;;;5035217;28;20225;-76
2023/03/20 00:13:11;;;;;;;35.47;19.65;;;11.10;99.90;;;;;;5035016;28;20241;-74
2023/03/20 00:15:41;;;;;;;47.72;21.45;;;11.10;99.90;;;;;;5034386;28;20206;-74
2023/03/20 00:18:17;;;;;;;38.33;21.98;;;11.10;99.90;;;;;;5043271;28;20234;-74
2023/03/20 00:21:29;;;;;;;35.30;19.80;;;11.20;99.90;;;;;;5034156;28;20210;-75
2023/03/20 00:23:56;;;;;;;36.20;19.95;;;11.10;99.90;;;;;;5032039;28;20327;-76
2023/03/20 00:26:27;;;;;;;43.55;22.60;;;11.20;99.90;;;;;;5034599;28;20622;-75
2023/03/20 00:28:55;;;;;;;39.95;22.30;;;11.10;99.90;;;;;;5034612;28;20587;-76
2023/03/20 00:31:25;;;;;;;35.03;19.15;;;11.10;99.90;;;;;;5035830;28;20210;-76
2023/03/20 00:33:56;;;;;;;42.22;21.05;;;11.10;99.90;;;;;;5034431;28;20649;-76
2023/03/20 00:36:23;;;;;;;43.40;22.35;;;11.00;99.90;;;;;;5034703;28;20727;-77
2023/03/20 00:38:50;;;;;;;36.83;21.73;;;11.00;99.90;;;;;;5029732;28;20565;-76
2023/03/20 00:41:25;;;;;;;35.63;19.60;;;11.00;99.90;;;;;;5030284;28;20226;-74
2023/03/20 00:43:55;;;;;;;37.15;21.17;;;11.10;99.90;;;;;;5030831;28;20274;-75
2023/03/20 00:46:22;;;;;;;36.08;20.98;;;11.10;99.90;;;;;;5034729;28;20205;-75
2023/03/20 00:48:52;;;;;;;42.85;23.08;;;11.10;99.90;;;;;;5029184;28;20286;-75
2023/03/20 00:51:20;;;;;;;40.42;21.33;;;11.10;99.90;;;;;;5031573;28;20199;-76
2023/03/20 00:53:47;;;;;;;32.85;20.60;;;11.20;99.90;;;;;;5035216;28;20250;-74
2023/03/20 00:56:32;;;;;;;35.10;18.80;;;11.20;99.90;;;;;;5047332;28;20246;-76
2023/03/20 00:59:00;;;;;;;40.53;23.05;;;11.20;99.90;;;;;;5033564;28;20245;-75
2023/03/20 01:01:27;;;;;;;39.30;21.95;;;11.10;99.90;;;;;;5039023;28;20734;-76
2023/03/20 01:03:54;;;;;;;40.10;21.15;;;11.10;99.90;;;;;;5036938;28;20233;-75
2023/03/20 01:06:23;;;;;;;39.38;21.40;;;11.10;99.90;;;;;;5039556;28;20261;-74
2023/03/20 01:08:50;;;;;;;43.33;22.70;;;11.10;99.90;;;;;;5034355;28;20214;-76
2023/03/20 01:11:22;;;;;;;40.92;22.95;;;11.10;99.90;;;;;;5033726;28;20303;-76
2023/03/20 01:13:51;;;;;;;43.20;22.85;;;11.10;99.90;;;;;;5033584;28;20327;-77
2023/03/20 01:16:21;;;;;;;42.92;22.15;;;11.10;99.90;;;;;;5034575;28;20211;-74
2023/03/20 01:18:49;;;;;;;41.60;22.30;;;11.10;99.90;;;;;;5033950;28;20297;-75
2023/03/20 01:21:16;;;;;;;48.05;23.80;;;11.10;99.90;;;;;;5033883;28;20625;-74
2023/03/20 01:23:44;;;;;;;42.17;22.20;;;11.00;99.90;;;;;;5034109;28;20238;-75
2023/03/20 01:26:22;;;;;;;33.10;20.08;;;10.90;99.90;;;;;;5034013;28;20276;-77
2023/03/20 01:28:49;;;;;;;31.70;18.92;;;10.90;99.90;;;;;;5035661;28;20202;-76
2023/03/20 01:31:17;;;;;;;34.08;19.60;;;10.80;99.90;;;;;;5030933;28;20223;-75
2023/03/20 01:33:45;;;;;;;36.35;16.90;;;10.70;99.90;;;;;;5033636;28;20264;-76
2023/03/20 01:36:14;;;;;;;33.33;17.70;;;10.60;99.90;;;;;;5030481;28;20216;-74
2023/03/20 01:38:42;;;;;;;30.73;16.75;;;10.70;99.90;;;;;;5033065;28;20307;-75
2023/03/20 01:41:15;;;;;;;29.77;17.95;;;10.60;99.90;;;;;;5031202;28;20292;-75
2023/03/20 01:43:42;;;;;;;27.48;17.58;;;10.60;99.90;;;;;;5031692;28;20293;-76
2023/03/20 01:46:20;;;;;;;21.77;14.38;;;10.60;99.90;;;;;;5031253;28;20662;-75
2023/03/20 01:49:09;;;;;;;25.90;15.05;;;10.60;99.90;;;;;;5030935;28;20207;-75
2023/03/20 01:51:36;;;;;;;15.32;9.68;;;10.60;99.90;;;;;;5027655;28;20210;-73
2023/03/20 01:54:08;;;;;;;12.68;8.40;;;10.50;99.90;;;;;;5037082;28;20282;-75
2023/03/20 01:56:41;;;;;;;16.45;10.77;;;10.50;99.90;;;;;;5026725;28;20212;-76
2023/03/20 01:59:11;;;;;;;16.60;8.90;;;10.50;99.90;;;;;;5032568;28;20204;-75
2023/03/20 02:01:40;;;;;;;13.25;7.60;;;10.50;99.90;;;;;;5029819;28;20283;-75
2023/03/20 02:04:07;;;;;;;14.88;8.52;;;10.50;99.90;;;;;;5033253;28;20309;-74
2023/03/20 02:06:36;;;;;;;13.13;8.82;;;10.40;99.90;;;;;;5033667;28;20263;-76
2023/03/20 02:09:04;;;;;;;11.93;9.52;;;10.40;99.90;;;;;;5033234;28;20244;-76
2023/03/20 02:11:31;;;;;;;11.65;7.95;;;10.30;99.90;;;;;;5033257;28;20206;-76
2023/03/20 02:14:01;;;;;;;13.48;8.10;;;10.30;99.90;;;;;;5029224;28;20261;-74
2023/03/20 02:16:28;;;;;;;12.10;8.30;;;10.20;99.90;;;;;;5034181;28;20200;-75
2023/03/20 02:18:57;;;;;;;12.93;8.80;;;10.30;99.90;;;;;;5033551;28;20208;-74
2023/03/20 02:21:56;;;;;;;15.52;9.35;;;10.20;99.90;;;;;;5027650;28;20259;-75
2023/03/20 02:24:55;;;;;;;12.07;8.65;;;10.20;99.90;;;;;;5021373;28;20248;-75
2023/03/20 02:27:30;;;;;;;11.75;8.20;;;10.20;99.90;;;;;;5028748;28;20292;-76
2023/03/20 02:30:25;;;;;;;14.00;8.30;;;10.20;99.90;;;;;;5030253;28;20246;-76
2023/03/20 02:33:28;;;;;;;14.82;8.88;;;10.20;99.90;;;;;;5025760;28;20764;-76
2023/03/20 02:36:35;;;;;;;16.15;8.30;;;10.20;99.90;;;;;;5032591;28;20674;-75
2023/03/20 02:39:22;;;;;;;11.98;7.22;;;10.20;99.90;;;;;;5019718;28;20247;-76
2023/03/20 02:41:54;;;;;;;11.30;6.95;;;10.10;99.90;;;;;;5051286;28;20246;-76
2023/03/20 02:44:25;;;;;;;9.52;6.78;;;10.20;99.90;;;;;;5043847;28;20267;-75
2023/03/20 02:46:59;;;;;;;10.75;7.00;;;10.10;99.90;;;;;;5032365;28;20609;-74
2023/03/20 02:49:53;;;;;;;9.95;7.10;;;10.10;99.90;;;;;;5033071;28;20207;-75
2023/03/20 02:52:31;;;;;;;10.98;7.28;;;10.10;99.90;;;;;;5025774;28;20239;-75
2023/03/20 02:55:10;;;;;;;10.32;6.80;;;10.10;99.90;;;;;;5028028;28;20242;-76
2023/03/20 02:57:44;;;;;;;12.52;8.00;;;10.10;99.90;;;;;;5025505;28;20281;-75
2023/03/20 03:00:18;;;;;;;10.80;6.53;;;10.20;99.90;;;;;;5022300;28;20682;-75
2023/03/20 03:02:50;;;;;;;9.20;6.53;;;10.20;99.90;;;;;;5030928;28;20264;-74
2023/03/20 03:05:23;;;;;;;9.75;7.03;;;10.20;99.90;;;;;;5031934;28;20233;-75
2023/03/20 03:07:54;;;;;;;9.25;6.55;;;10.20;99.90;;;;;;5024815;28;20228;-75
2023/03/20 03:10:28;;;;;;;7.65;5.90;;;10.20;99.90;;;;;;5036912;28;20209;-74
2023/03/20 03:12:58;;;;;;;8.18;6.50;;;10.20;99.90;;;;;;5025270;28;20227;-74
2023/03/20 03:15:30;;;;;;;9.80;6.32;;;10.20;99.90;;;;;;5032359;28;20216;-75
2023/03/20 03:17:59;;;;;;;8.02;5.90;;;10.10;99.90;;;;;;5036420;28;20219;-75
2023/03/20 03:20:31;;;;;;;8.90;5.82;;;10.20;99.90;;;;;;5032769;28;20254;-74
2023/03/20 03:23:19;;;;;;;8.50;5.93;;;10.20;99.90;;;;;;5029688;28;20309;-75
2023/03/20 03:25:59;;;;;;;8.00;5.80;;;10.20;99.90;;;;;;5035632;28;20205;-75
2023/03/20 03:28:35;;;;;;;10.75;6.03;;;10.20;99.90;;;;;;5018949;28;20206;-75
2023/03/20 03:31:05;;;;;;;9.73;6.40;;;10.30;99.90;;;;;;5026084;28;20646;-75
2023/03/20 03:33:34;;;;;;;10.10;5.82;;;10.30;99.90;;;;;;5023226;28;20256;-75
2023/03/20 03:36:08;;;;;;;12.18;7.18;;;10.30;99.90;;;;;;5032134;28;20244;-74
2023/03/20 03:38:43;;;;;;;8.43;5.55;;;10.40;99.90;;;;;;5031190;28;20206;-75
2023/03/20 03:41:22;;;;;;;7.78;5.65;;;10.40;99.90;;;;;;5032514;28;20235;-74
2023/03/20 03:43:57;;;;;;;9.48;6.47;;;10.50;99.90;;;;;;5030847;28;20251;-73
2023/03/20 03:46:32;;;;;;;9.25;5.43;;;10.50;99.90;;;;;;5030902;28;20215;-76
2023/03/20 03:49:01;;;;;;;12.20;7.00;;;10.50;99.90;;;;;;5028315;28;20207;-76
2023/03/20 03:51:31;;;;;;;7.50;5.90;;;10.40;99.90;;;;;;5031389;28;20206;-75
2023/03/20 03:54:01;;;;;;;13.10;8.80;;;10.40;99.90;;;;;;5027398;28;20641;-76
2023/03/20 03:56:33;;;;;;;10.05;7.10;;;10.40;99.90;;;;;;5031094;28;20602;-76
2023/03/20 03:59:04;;;;;;;9.93;7.93;;;10.30;99.90;;;;;;5029185;28;20606;-76
2023/03/20 04:01:34;;;;;;;12.13;7.00;;;10.20;99.90;;;;;;5033267;28;20236;-75
2023/03/20 04:04:04;;;;;;;10.88;8.10;;;10.20;99.90;;;;;;5032395;28;20225;-75
2023/03/20 04:06:32;;;;;;;12.43;8.85;;;10.20;99.90;;;;;;5026652;28;20706;-75
2023/03/20 04:08:59;;;;;;;10.65;7.47;;;10.10;99.90;;;;;;5028340;28;20235;-76
2023/03/20 04:11:28;;;;;;;11.95;7.72;;;10.10;99.90;;;;;;5025650;28;20200;-77
2023/03/20 04:13:56;;;;;;;13.13;8.63;;;10.10;99.90;;;;;;5033582;28;20647;-74
2023/03/20 04:16:25;;;;;;;15.35;8.57;;;10.10;99.90;;;;;;5028915;28;20618;-75
2023/03/20 04:18:52;;;;;;;13.75;9.15;;;10.10;99.90;;;;;;5034882;28;20227;-74
2023/03/20 04:21:19;;;;;;;12.93;9.30;;;10.00;99.90;;;;;;5034478;28;20236;-75
2023/03/20 04:23:46;;;;;;;10.27;7.53;;;10.00;99.90;;;;;;5034790;28;20586;-74
2023/03/20 04:26:13;;;;;;;13.50;8.95;;;10.00;99.90;;;;;;5034639;28;20538;-74
2023/03/20 04:28:40;;;;;;;14.68;9.25;;;10.00;99.90;;;;;;5035344;28;20215;-74
2023/03/20 04:31:08;;;;;;;12.27;8.05;;;10.00;99.90;;;;;;5035565;28;20247;-74
2023/03/20 04:33:36;;;;;;;14.55;9.63;;;10.10;99.90;;;;;;5032292;28;20243;-76
2023/03/20 04:36:05;;;;;;;13.45;9.20;;;10.00;99.90;;;;;;5043481;28;20605;-75
2023/03/20 04:38:32;;;;;;;13.35;8.80;;;10.00;99.90;;;;;;5035132;28;20224;-75
2023/03/20 04:40:58;;;;;;;14.45;8.90;;;9.90;99.90;;;;;;5033598;28;20278;-75
2023/03/20 04:43:25;;;;;;;16.88;10.20;;;9.90;99.90;;;;;;5029804;28;20224;-75
2023/03/20 04:45:52;;;;;;;17.42;10.13;;;9.90;99.90;;;;;;5033323;28;20204;-76
2023/03/20 04:48:21;;;;;;;18.27;10.52;;;9.80;99.90;;;;;;5025998;28;20232;-75
2023/03/20 04:50:49;;;;;;;14.70;9.80;;;9.90;99.90;;;;;;5024140;28;20236;-75
2023/03/20 04:53:17;;;;;;;14.18;10.73;;;9.80;99.90;;;;;;5032049;28;20582;-75
2023/03/20 04:55:44;;;;;;;16.83;10.02;;;9.80;99.90;;;;;;5028794;28;20247;-76
2023/03/20 04:58:11;;;;;;;16.95;11.10;;;9.80;99.90;;;;;;5026755;28;20659;-74
2023/03/20 05:00:38;;;;;;;16.58;9.85;;;9.70;99.90;;;;;;5028283;28;20233;-75
2023/03/20 05:03:05;;;;;;;16.63;9.27;;;9.80;99.90;;;;;;5028055;28;20220;-74
2023/03/20 05:05:36;;;;;;;13.10;8.90;;;9.70;99.90;;;;;;5032898;28;20228;-74
2023/03/20 05:08:04;;;;;;;16.08;9.85;;;9.70;99.90;;;;;;5029133;28;20211;-75
2023/03/20 05:10:31;;;;;;;15.70;9.70;;;9.70;99.90;;;;;;5023061;28;20214;-74
2023/03/20 05:12:58;;;;;;;16.35;9.40;;;9.70;99.90;;;;;;5030091;28;20315;-73
2023/03/20 05:15:25;;;;;;;17.15;11.27;;;9.70;99.90;;;;;;5031870;28;20193;-73
2023/03/20 05:17:53;;;;;;;13.63;8.10;;;9.80;99.90;;;;;;5034197;28;20209;-74
2023/03/20 05:20:20;;;;;;;18.20;11.35;;;9.80;99.90;;;;;;5029176;28;20204;-74
2023/03/20 05:22:50;;;;;;;15.82;9.30;;;9.80;99.90;;;;;;5025662;28;20227;-74
2023/03/20 05:25:17;;;;;;;16.08;10.35;;;9.80;99.90;;;;;;5030118;28;20234;-74
2023/03/20 05:27:45;;;;;;;16.42;10.88;;;9.80;99.90;;;;;;5027200;28;20209;-74
2023/03/20 05:30:13;;;;;;;16.63;11.32;;;9.80;99.90;;;;;;5030957;28;20206;-74
2023/03/20 05:32:42;;;;;;;17.45;10.55;;;9.80;99.90;;;;;;5028019;28;20690;-74
2023/03/20 05:35:09;;;;;;;22.60;10.25;;;9.80;99.90;;;;;;5034799;28;20287;-75
2023/03/20 05:37:37;;;;;;;16.85;8.48;;;9.80;99.90;;;;;;5033531;28;20638;-74
2023/03/20 05:40:06;;;;;;;18.60;11.07;;;9.80;99.90;;;;;;5033458;28;20196;-74
2023/03/20 05:42:33;;;;;;;16.42;11.68;;;9.80;99.90;;;;;;5033947;28;20616;-74
2023/03/20 05:45:06;;;;;;;15.07;10.45;;;9.80;99.90;;;;;;5034727;28;20266;-74
2023/03/20 05:47:33;;;;;;;18.15;12.02;;;9.80;99.90;;;;;;5034534;28;20291;-73
2023/03/20 05:50:06;;;;;;;17.23;11.50;;;9.80;99.90;;;;;;5033747;28;20200;-74
2023/03/20 05:52:47;;;;;;;20.20;12.35;;;9.70;99.90;;;;;;5033322;28;20253;-74
2023/03/20 05:55:16;;;;;;;19.17;12.27;;;9.80;99.90;;;;;;5029736;28;20204;-75
2023/03/20 05:57:43;;;;;;;19.88;13.00;;;9.70;99.90;;;;;;5031389;28;20215;-75
2023/03/20 06:00:11;;;;;;;22.00;13.60;;;9.60;99.90;;;;;;5030123;28;20231;-76
2023/03/20 06:02:39;;;;;;;19.80;13.35;;;9.70;99.90;;;;;;5033073;28;20615;-74
2023/03/20 06:05:08;;;;;;;21.20;14.80;;;9.80;99.90;;;;;;5037901;28;20303;-73
2023/03/20 06:07:44;;;;;;;17.05;11.50;;;9.80;99.90;;;;;;5034693;28;20292;-74
2023/03/20 06:10:11;;;;;;;19.35;11.32;;;9.70;99.90;;;;;;5033743;28;20211;-73
2023/03/20 06:12:40;;;;;;;16.65;11.40;;;9.80;99.90;;;;;;5033825;28;20234;-76
2023/03/20 06:15:31;;;;;;;18.58;10.90;;;9.80;99.90;;;;;;5039444;28;20194;-75
2023/03/20 06:17:58;;;;;;;22.50;12.25;;;9.90;99.90;;;;;;5022429;28;20628;-75
2023/03/20 06:20:26;;;;;;;18.08;11.07;;;9.80;99.90;;;;;;5032693;28;20207;-76
2023/03/20 06:23:12;;;;;;;16.83;11.05;;;9.90;99.90;;;;;;5033288;28;20247;-75
2023/03/20 06:25:46;;;;;;;18.23;12.20;;;9.90;99.90;;;;;;5033311;28;20220;-74
2023/03/20 06:28:15;;;;;;;21.83;11.15;;;9.90;99.90;;;;;;5035688;28;20242;-73
2023/03/20 06:30:42;;;;;;;16.17;10.10;;;9.80;99.90;;;;;;5033247;28;20204;-73
2023/03/20 06:33:10;;;;;;;17.05;11.52;;;9.90;99.90;;;;;;5033046;28;20259;-73
2023/03/20 06:35:37;;;;;;;19.67;10.98;;;10.00;99.90;;;;;;5033800;28;20196;-71
2023/03/20 06:38:04;;;;;;;12.18;8.15;;;9.90;99.90;;;;;;5024819;28;20286;-74
2023/03/20 06:40:47;;;;;;;15.20;8.98;;;9.90;99.90;;;;;;5032419;28;20231;-76
2023/03/20 06:43:15;;;;;;;13.18;9.88;;;9.80;99.90;;;;;;5022158;28;20238;-76
2023/03/20 06:45:42;;;;;;;14.73;8.77;;;9.80;99.90;;;;;;5023240;28;20215;-77
2023/03/20 06:48:11;;;;;;;22.02;11.02;;;9.80;99.90;;;;;;5033907;28;20214;-74
2023/03/20 06:50:38;;;;;;;17.38;10.35;;;9.90;99.90;;;;;;5025724;28;20216;-74
2023/03/20 06:53:06;;;;;;;13.85;8.65;;;9.90;99.90;;;;;;5013458;28;20283;-73
2023/03/20 06:55:33;;;;;;;20.20;10.32;;;9.90;99.90;;;;;;5031908;28;20204;-74
2023/03/20 06:58:00;;;;;;;16.67;10.02;;;10.00;99.90;;;;;;5021131;28;20298;-73
2023/03/20 07:00:28;;;;;;;13.35;9.98;;;10.10;99.90;;;;;;5021254;28;20215;-74
2023/03/20 07:02:55;;;;;;;15.10;9.75;;;10.10;99.90;;;;;;5030387;28;20702;-72
2023/03/20 07:05:22;;;;;;;15.98;9.90;;;10.10;99.90;;;;;;5027631;28;20209;-73
2023/03/20 07:07:49;;;;;;;15.20;9.57;;;10.10;99.90;;;;;;5030977;28;20200;-73
2023/03/20 07:10:18;;;;;;;20.73;10.85;;;10.10;99.90;;;;;;5031698;28;20212;-72
2023/03/20 07:12:45;;;;;;;11.55;8.20;;;10.20;99.90;;;;;;5024302;28;20225;-73
2023/03/20 07:15:12;;;;;;;14.60;8.70;;;10.20;99.90;;;;;;5030621;28;20239;-73
2023/03/20 07:17:42;;;;;;;11.75;9.38;;;10.10;99.90;;;;;;5029498;28;20242;-74
2023/03/20 07:20:10;;;;;;;15.32;10.25;;;10.10;99.90;;;;;;5031230;28;20242;-74
2023/03/20 07:22:37;;;;;;;14.02;9.30;;;10.10;99.90;;;;;;5024358;28;20211;-73
2023/03/20 07:25:05;;;;;;;13.05;8.90;;;10.10;99.90;;;;;;5029241;28;20242;-73
2023/03/20 07:27:32;;;;;;;12.60;9.00;;;10.00;99.90;;;;;;5024507;28;20267;-72
2023/03/20 07:30:01;;;;;;;13.45;9.60;;;10.10;99.90;;;;;;5023723;28;20255;-72
2023/03/20 07:32:28;;;;;;;19.27;9.00;;;10.10;99.90;;;;;;5025883;28;20201;-73
2023/03/20 07:34:57;;;;;;;15.38;9.55;;;10.30;99.90;;;;;;5038429;28;20208;-71
2023/03/20 07:37:24;;;;;;;10.95;8.77;;;10.20;99.90;;;;;;5029352;28;20199;-73
2023/03/20 07:39:52;;;;;;;15.02;9.32;;;10.20;99.90;;;;;;5034542;28;20197;-73
2023/03/20 07:42:19;;;;;;;11.80;8.23;;;10.30;99.90;;;;;;5026293;28;20230;-72
2023/03/20 07:44:46;;;;;;;13.10;8.50;;;10.20;99.90;;;;;;5031041;28;20322;-73
2023/03/20 07:47:13;;;;;;;12.68;9.63;;;10.20;99.90;;;;;;5025200;28;20296;-73
2023/03/20 07:49:40;;;;;;;12.35;8.63;;;10.10;99.90;;;;;;5039178;28;20694;-73
2023/03/20 07:52:09;;;;;;;15.50;10.55;;;10.20;99.90;;;;;;5033342;28;20291;-72
2023/03/20 07:54:36;;;;;;;11.38;9.10;;;10.20;99.90;;;;;;5035672;28;20234;-72
2023/03/20 07:57:04;;;;;;;12.60;9.45;;;10.10;99.90;;;;;;5034546;28;20228;-72
2023/03/20 07:59:31;;;;;;;13.23;8.60;;;10.20;99.90;;;;;;5034881;28;20193;-72
2023/03/20 08:01:58;;;;;;;15.65;7.75;;;10.20;99.90;;;;;;5035025;28;20214;-72
2023/03/20 08:04:25;;;;;;;17.73;8.75;;;10.20;99.90;;;;;;5031015;28;20270;-72
2023/03/20 08:06:52;;;;;;;11.95;7.75;;;10.30;99.90;;;;;;5033109;28;20200;-72
2023/03/20 08:09:20;;;;;;;13.18;8.85;;;10.20;99.90;;;;;;5034571;28;20209;-73
2023/03/20 08:11:47;;;;;;;13.60;10.13;;;10.10;99.90;;;;;;5033376;28;20637;-72
2023/03/20 08:14:14;;;;;;;10.65;8.50;;;10.20;99.90;;;;;;5041705;28;20330;-71
2023/03/20 08:16:42;;;;;;;16.40;9.57;;;10.20;99.90;;;;;;5031615;28;20201;-73
2023/03/20 08:19:09;;;;;;;15.18;8.55;;;10.30;99.90;;;;;;5031909;28;20297;-72
2023/03/20 08:21:37;;;;;;;13.20;7.85;;;10.30;99.90;;;;;;5028607;28;20269;-72
2023/03/20 08:24:04;;;;;;;14.88;9.05;;;10.40;99.90;;;;;;5033896;28;20228;-74
2023/03/20 08:26:33;;;;;;;14.23;8.10;;;10.50;99.90;;;;;;5034154;28;20230;-71
2023/03/20 08:29:00;;;;;;;15.98;7.60;;;10.50;99.90;;;;;;5034493;28;20538;-72
2023/03/20 08:31:27;;;;;;;14.63;8.25;;;10.40;99.90;;;;;;5034817;28;20283;-70
2023/03/20 08:33:55;;;;;;;11.05;7.43;;;10.40;99.90;;;;;;5033655;28;20224;-71
2023/03/20 08:36:22;;;;;;;18.35;7.40;;;10.50;99.90;;;;;;5035072;28;20201;-71
2023/03/20 08:38:49;;;;;;;17.33;8.40;;;10.50;99.90;;;;;;5038978;28;20239;-70
2023/03/20 08:41:16;;;;;;;18.15;9.73;;;10.40;99.90;;;;;;5033043;28;20198;-70
2023/03/20 08:43:45;;;;;;;16.15;8.75;;;10.50;99.90;;;;;;5033941;28;20230;-70
2023/03/20 08:46:12;;;;;;;16.20;8.18;;;10.50;99.90;;;;;;5032812;28;20250;-70
2023/03/20 08:48:39;;;;;;;19.75;8.90;;;10.60;99.90;;;;;;5034151;28;20205;-72
2023/03/20 08:51:07;;;;;;;15.02;8.45;;;10.60;99.90;;;;;;5033958;28;20208;-70
2023/03/20 08:53:34;;;;;;;21.65;8.77;;;10.60;99.90;;;;;;5033503;28;20661;-70
2023/03/20 08:56:01;;;;;;;11.00;7.60;;;10.70;99.90;;;;;;5033942;28;20253;-71
2023/03/20 08:58:29;;;;;;;12.45;8.10;;;10.70;99.90;;;;;;5037316;28;20206;-71
2023/03/20 09:01:01;;;;;;;10.15;8.45;;;10.80;99.90;;;;;;5029515;28;20230;-70
2023/03/20 09:03:28;;;;;;;12.25;7.75;;;11.00;99.90;;;;;;5039133;28;20224;-71
2023/03/20 09:05:55;;;;;;;11.95;7.32;;;11.00;99.90;;;;;;5034548;28;20530;-70
2023/03/20 09:08:22;;;;;;;17.40;11.23;;;11.10;99.90;;;;;;5034613;28;20235;-70
2023/03/20 09:10:49;;;;;;;11.27;7.15;;;11.10;99.90;;;;;;5036805;28;20206;-70
2023/03/20 09:13:16;;;;;;;13.77;7.60;;;11.10;99.90;;;;;;5039360;28;20233;-69
2023/03/20 09:15:43;;;;;;;11.85;7.40;;;11.00;99.90;;;;;;5044087;28;20210;-70
2023/03/20 09:18:12;;;;;;;10.55;7.82;;;11.10;99.90;;;;;;5045266;28;20229;-69
2023/03/20 09:20:38;;;;;;;15.15;8.35;;;11.10;99.90;;;;;;5049668;28;20276;-71
2023/03/20 09:23:05;;;;;;;13.73;7.60;;;11.30;99.90;;;;;;5042342;28;20219;-71
2023/03/20 09:25:32;;;;;;;10.40;7.40;;;11.20;99.90;;;;;;5048134;28;20232;-70
2023/03/20 09:28:00;;;;;;;12.15;7.43;;;11.40;99.90;;;;;;5041863;28;20286;-71
2023/03/20 09:30:27;;;;;;;12.25;8.30;;;11.40;99.90;;;;;;5046344;28;20209;-70
2023/03/20 09:32:56;;;;;;;10.50;7.13;;;11.60;99.90;;;;;;5039672;28;20715;-70
2023/03/20 09:35:25;;;;;;;12.30;8.45;;;11.80;99.90;;;;;;5036946;28;20290;-70
2023/03/20 09:37:53;;;;;;;13.45;8.82;;;12.10;99.90;;;;;;5040766;28;20209;-71
2023/03/20 09:40:27;;;;;;;11.85;7.25;;;12.10;99.90;;;;;;5032923;28;20222;-71
2023/03/20 09:43:02;;;;;;;12.05;7.43;;;12.20;99.90;;;;;;5019087;28;20432;-70
2023/03/20 09:45:43;;;;;;;13.18;8.18;;;12.00;99.90;;;;;;5023044;28;20295;-70
2023/03/20 09:48:25;;;;;;;14.25;8.05;;;11.60;99.90;;;;;;5032067;28;20206;-70
2023/03/20 09:51:03;;;;;;;9.73;5.78;;;11.30;99.90;;;;;;5032815;28;20206;-71
2023/03/20 09:53:34;;;;;;;10.60;7.05;;;11.20;99.90;;;;;;5024679;28;20265;-70
2023/03/20 09:56:01;;;;;;;11.52;7.55;;;11.10;99.90;;;;;;5028454;28;20542;-70
2023/03/20 09:58:32;;;;;;;10.75;7.80;;;11.30;99.90;;;;;;5020811;28;20235;-69
2023/03/20 10:01:01;;;;;;;10.20;7.45;;;11.40;99.90;;;;;;5028676;28;20208;-71
2023/03/20 10:03:35;;;;;;;13.68;7.60;;;11.70;99.90;;;;;;5032124;28;20222;-70
2023/03/20 10:06:05;;;;;;;8.23;7.20;;;11.60;99.90;;;;;;5025772;28;20301;-71
2023/03/20 10:08:36;;;;;;;12.07;6.95;;;11.60;99.90;;;;;;5029617;28;20293;-71
2023/03/20 10:11:15;;;;;;;11.38;6.88;;;11.60;99.90;;;;;;5028989;28;20560;-70
2023/03/20 10:13:56;;;;;;;7.35;6.43;;;11.50;99.90;;;;;;5037314;28;20309;-71
2023/03/20 10:16:31;;;;;;;9.50;6.88;;;11.50;99.90;;;;;;5024090;28;20234;-70
2023/03/20 10:19:06;;;;;;;8.10;5.50;;;11.40;99.90;;;;;;5021056;28;20331;-70
2023/03/20 10:21:43;;;;;;;10.30;5.80;;;11.40;99.90;;;;;;5025470;28;20209;-71
2023/03/20 10:24:19;;;;;;;7.43;5.50;;;11.40;99.90;;;;;;5026556;28;20236;-70
2023/03/20 10:26:50;;;;;;;11.80;6.65;;;11.40;99.90;;;;;;5029657;28;20231;-70
2023/03/20 10:29:27;;;;;;;10.63;6.30;;;11.40;99.90;;;;;;5033258;28;20206;-69
2023/03/20 10:32:03;;;;;;;10.20;6.05;;;11.70;99.90;;;;;;5023539;28;20198;-70
2023/03/20 10:34:48;;;;;;;9.80;7.30;;;11.50;99.90;;;;;;5031007;28;20223;-70
2023/03/20 10:37:35;;;;;;;12.85;6.72;;;11.60;99.90;;;;;;5032845;28;20642;-70
2023/03/20 10:40:22;;;;;;;10.63;5.82;;;11.80;99.90;;;;;;5025429;28;20203;-70
2023/03/20 10:42:52;;;;;;;12.63;6.85;;;11.80;99.90;;;;;;5031513;28;20252;-71
2023/03/20 10:45:30;;;;;;;9.32;5.70;;;11.80;99.90;;;;;;5031837;28;20215;-71
2023/03/20 10:47:59;;;;;;;9.82;5.00;;;11.90;99.90;;;;;;5030988;28;20200;-69
2023/03/20 10:50:32;;;;;;;13.90;5.47;;;11.90;99.90;;;;;;5031151;28;20242;-70
2023/03/20 10:53:03;;;;;;;9.82;7.03;;;12.00;99.90;;;;;;5031783;28;20223;-70
2023/03/20 10:55:34;;;;;;;6.95;5.00;;;12.00;99.90;;;;;;5020640;28;20238;-70
2023/03/20 10:58:05;;;;;;;10.68;5.40;;;11.90;99.90;;;;;;5035552;28;20198;-69
2023/03/20 11:00:33;;;;;;;10.57;4.70;;;11.80;99.90;;;;;;5031109;28;20205;-70
2023/03/20 11:03:00;;;;;;;7.93;4.20;;;11.80;99.90;;;;;;5032000;28;20235;-69
2023/03/20 11:05:31;;;;;;;7.30;4.88;;;11.90;99.90;;;;;;5031364;28;20204;-70
2023/03/20 11:08:06;;;;;;;8.55;4.65;;;12.10;99.90;;;;;;5028685;28;20207;-71
2023/03/20 11:10:34;;;;;;;6.95;4.80;;;12.10;99.90;;;;;;5029330;28;20204;-71
2023/03/20 11:13:18;;;;;;;12.07;5.85;;;12.30;99.90;;;;;;5033379;28;20224;-69
2023/03/20 11:15:45;;;;;;;14.60;7.10;;;12.40;99.90;;;;;;5030681;28;20199;-70
2023/03/20 11:18:15;;;;;;;7.35;5.20;;;12.50;99.90;;;;;;5033142;28;20231;-70
2023/03/20 11:20:47;;;;;;;6.75;4.50;;;12.90;99.90;;;;;;5031380;28;20206;-71
2023/03/20 11:23:19;;;;;;;9.43;6.10;;;12.80;99.90;;;;;;5032024;28;20322;-71
2023/03/20 11:25:51;;;;;;;7.53;4.72;;;12.90;99.90;;;;;;5031799;28;20689;-70
2023/03/20 11:28:30;;;;;;;9.10;4.60;;;12.80;99.90;;;;;;5034104;28;20302;-70
2023/03/20 11:31:00;;;;;;;8.00;5.03;;;12.60;99.90;;;;;;5026525;28;20283;-69
2023/03/20 11:33:29;;;;;;;10.00;4.43;;;12.80;99.90;;;;;;5034870;28;20768;-71
2023/03/20 11:35:57;;;;;;;6.45;4.22;;;13.00;99.90;;;;;;5036210;28;20203;-69
2023/03/20 11:38:25;;;;;;;4.82;4.25;;;13.00;99.90;;;;;;5035675;28;20204;-71
2023/03/20 11:40:52;;;;;;;6.93;4.65;;;12.90;99.90;;;;;;5035290;28;20209;-70
2023/03/20 11:43:22;;;;;;;9.60;5.03;;;13.00;99.90;;;;;;5035961;28;20300;-70
2023/03/20 11:45:55;;;;;;;11.60;5.78;;;13.10;99.90;;;;;;5035116;28;20255;-70
2023/03/20 11:48:25;;;;;;;11.18;4.95;;;13.10;99.90;;;;;;5031078;28;20272;-70
2023/03/20 11:51:00;;;;;;;9.77;5.10;;;12.90;99.90;;;;;;5028866;28;20242;-69
2023/03/20 11:53:32;;;;;;;11.40;5.68;;;12.70;99.90;;;;;;5029406;28;20224;-71
2023/03/20 11:56:06;;;;;;;6.53;4.68;;;12.90;99.90;;;;;;5025040;28;20258;-70
2023/03/20 11:58:36;;;;;;;11.57;5.40;;;12.80;99.90;;;;;;5028856;28;20213;-70
2023/03/20 12:01:04;;;;;;;7.82;5.03;;;12.80;99.90;;;;;;5034069;28;20210;-69
2023/03/20 12:03:40;;;;;;;10.18;4.85;;;12.80;99.90;;;;;;5035205;28;20583;-70
2023/03/20 12:06:12;;;;;;;10.75;5.05;;;12.80;99.90;;;;;;5035895;28;20216;-71
2023/03/20 12:08:43;;;;;;;8.18;6.10;;;12.80;99.90;;;;;;5033537;28;20214;-71
2023/03/20 12:11:38;;;;;;;11.02;5.70;;;12.90;99.90;;;;;;5032720;28;20239;-70
2023/03/20 12:14:12;;;;;;;13.35;5.90;;;13.10;99.90;;;;;;5025542;28;20223;-70
2023/03/20 12:16:40;;;;;;;7.55;5.05;;;13.30;99.90;;;;;;5034267;28;20195;-70
2023/03/20 12:19:16;;;;;;;6.20;4.65;;;13.50;99.90;;;;;;5022976;28;20558;-70
2023/03/20 12:21:48;;;;;;;6.32;5.70;;;13.40;99.40;;;;;;5026545;28;20210;-71
2023/03/20 12:24:27;;;;;;;10.30;6.68;;;13.50;99.40;;;;;;5030472;28;20267;-71
2023/03/20 12:27:01;;;;;;;8.38;5.15;;;13.10;99.00;;;;;;5026687;28;20220;-71
2023/03/20 12:29:36;;;;;;;11.85;6.20;;;13.00;99.60;;;;;;5032493;28;21866;-69
2023/03/20 12:32:10;;;;;;;8.63;5.13;;;13.00;99.90;;;;;;5033057;28;20207;-69
2023/03/20 12:34:42;;;;;;;10.07;5.28;;;13.10;99.90;;;;;;5039697;28;20311;-69
2023/03/20 12:37:12;;;;;;;8.40;4.95;;;13.10;99.90;;;;;;5030183;28;20234;-71
2023/03/20 12:39:45;;;;;;;11.93;6.47;;;13.00;99.90;;;;;;5035624;28;20605;-69
2023/03/20 12:42:24;;;;;;;10.02;6.00;;;12.90;99.90;;;;;;5034809;28;20601;-72
2023/03/20 12:44:57;;;;;;;9.20;5.75;;;12.60;99.90;;;;;;5030958;28;20203;-71
2023/03/20 12:48:03;;;;;;;8.63;5.60;;;12.50;99.90;;;;;;5030026;28;20259;-70
2023/03/20 12:50:36;;;;;;;10.30;5.35;;;12.40;99.90;;;;;;5035079;28;20204;-70
2023/03/20 12:53:25;;;;;;;8.52;5.63;;;12.40;99.90;;;;;;5028445;28;20328;-69
2023/03/20 12:56:03;;;;;;;10.48;5.30;;;12.60;99.90;;;;;;5027876;28;20206;-69
2023/03/20 12:58:39;;;;;;;13.82;7.70;;;12.40;99.90;;;;;;5027818;28;20207;-69